sensor_id;sensor_type;location;lat;lon;timestamp;temperature;humidity
52058;DHT22;38063;53.210;6.504;2023-09-30T00:02:11;11.50;99.90
52058;DHT22;38063;53.210;6.504;2023-09-30T00:04:38;11.50;99.90
52058;DHT22;38063;53.210;6.504;2023-09-30T00:07:04;11.50;99.90
52058;DHT22;38063;53.210;6.504;2023-09-30T00:09:31;11.50;99.90
52058;DHT22;38063;53.210;6.504;2023-09-30T00:11:56;11.50;99.90
52058;DHT22;38063;53.210;6.504;2023-09-30T00:14:22;11.50;99.90
52058;DHT22;38063;53.210;6.504;2023-09-30T00:16:48;11.90;99.90
52058;DHT22;38063;53.210;6.504;2023-09-30T00:19:14;11.50;99.90
52058;DHT22;38063;53.210;6.504;2023-09-30T00:21:40;11.60;99.90
52058;DHT22;38063;53.210;6.504;2023-09-30T00:24:05;11.60;99.90
52058;DHT22;38063;53.210;6.504;2023-09-30T00:26:31;11.50;99.90
52058;DHT22;38063;53.210;6.504;2023-09-30T00:28:57;11.50;99.90
52058;DHT22;38063;53.210;6.504;2023-09-30T00:31:23;11.50;99.90
52058;DHT22;38063;53.210;6.504;2023-09-30T00:33:48;11.50;99.90
52058;DHT22;38063;53.210;6.504;2023-09-30T00:36:14;11.40;99.90
52058;DHT22;38063;53.210;6.504;2023-09-30T00:38:40;11.70;99.90
52058;DHT22;38063;53.210;6.504;2023-09-30T00:41:06;11.40;99.90
52058;DHT22;38063;53.210;6.504;2023-09-30T00:43:34;11.40;99.90
52058;DHT22;38063;53.210;6.504;2023-09-30T00:46:25;11.40;99.90
52058;DHT22;38063;53.210;6.504;2023-09-30T00:48:53;11.40;99.90
52058;DHT22;38063;53.210;6.504;2023-09-30T00:51:19;11.40;99.90
52058;DHT22;38063;53.210;6.504;2023-09-30T00:53:45;11.40;99.90
52058;DHT22;38063;53.210;6.504;2023-09-30T00:56:11;11.30;99.90
52058;DHT22;38063;53.210;6.504;2023-09-30T00:58:38;11.30;99.90
52058;DHT22;38063;53.210;6.504;2023-09-30T01:01:04;11.30;99.90
52058;DHT22;38063;53.210;6.504;2023-09-30T01:03:30;11.30;99.90
52058;DHT22;38063;53.210;6.504;2023-09-30T01:05:55;11.30;99.90
52058;DHT22;38063;53.210;6.504;2023-09-30T01:08:21;11.30;99.90
52058;DHT22;38063;53.210;6.504;2023-09-30T01:10:48;11.30;99.90
52058;DHT22;38063;53.210;6.504;2023-09-30T01:13:13;11.30;99.90
52058;DHT22;38063;53.210;6.504;2023-09-30T01:15:39;11.30;99.90
52058;DHT22;38063;53.210;6.504;2023-09-30T01:18:05;11.40;99.90
52058;DHT22;38063;53.210;6.504;2023-09-30T01:20:31;11.40;99.90
52058;DHT22;38063;53.210;6.504;2023-09-30T01:22:57;11.40;99.90
52058;DHT22;38063;53.210;6.504;2023-09-30T01:25:24;11.40;99.90
52058;DHT22;38063;53.210;6.504;2023-09-30T01:27:50;11.50;99.90
52058;DHT22;38063;53.210;6.504;2023-09-30T01:30:19;11.40;99.90
52058;DHT22;38063;53.210;6.504;2023-09-30T01:32:45;11.40;99.90
52058;DHT22;38063;53.210;6.504;2023-09-30T01:35:11;11.40;99.90
52058;DHT22;38063;53.210;6.504;2023-09-30T01:37:37;11.40;99.90
52058;DHT22;38063;53.210;6.504;2023-09-30T01:40:03;11.50;99.90
52058;DHT22;38063;53.210;6.504;2023-09-30T01:42:29;11.50;99.90
52058;DHT22;38063;53.210;6.504;2023-09-30T01:44:55;11.50;99.90
52058;DHT22;38063;53.210;6.504;2023-09-30T01:47:22;11.50;99.90
52058;DHT22;38063;53.210;6.504;2023-09-30T01:49:48;11.80;99.90
52058;DHT22;38063;53.210;6.504;2023-09-30T01:52:14;11.50;99.90
52058;DHT22;38063;53.210;6.504;2023-09-30T01:54:39;11.50;99.90
52058;DHT22;38063;53.210;6.504;2023-09-30T01:57:05;11.50;99.90
52058;DHT22;38063;53.210;6.504;2023-09-30T01:59:31;11.50;99.90
52058;DHT22;38063;53.210;6.504;2023-09-30T02:01:56;11.50;99.90
52058;DHT22;38063;53.210;6.504;2023-09-30T02:04:22;11.70;99.90
52058;DHT22;38063;53.210;6.504;2023-09-30T02:06:48;11.50;99.90
52058;DHT22;38063;53.210;6.504;2023-09-30T02:09:14;11.50;99.90
52058;DHT22;38063;53.210;6.504;2023-09-30T02:11:40;11.50;99.90
52058;DHT22;38063;53.210;6.504;2023-09-30T02:14:06;11.80;99.90
52058;DHT22;38063;53.210;6.504;2023-09-30T02:16:32;11.50;99.90
52058;DHT22;38063;53.210;6.504;2023-09-30T02:18:58;11.60;99.90
52058;DHT22;38063;53.210;6.504;2023-09-30T02:21:26;11.60;99.90
52058;DHT22;38063;53.210;6.504;2023-09-30T02:23:53;11.60;99.90
52058;DHT22;38063;53.210;6.504;2023-09-30T02:26:21;11.50;99.90
52058;DHT22;38063;53.210;6.504;2023-09-30T02:28:47;11.50;99.90
52058;DHT22;38063;53.210;6.504;2023-09-30T02:31:13;11.60;99.90
52058;DHT22;38063;53.210;6.504;2023-09-30T02:33:38;11.70;99.90
52058;DHT22;38063;53.210;6.504;2023-09-30T02:36:08;11.60;99.90
52058;DHT22;38063;53.210;6.504;2023-09-30T02:38:34;11.60;99.90
52058;DHT22;38063;53.210;6.504;2023-09-30T02:41:02;11.60;99.90
52058;DHT22;38063;53.210;6.504;2023-09-30T02:43:28;11.50;99.90
52058;DHT22;38063;53.210;6.504;2023-09-30T02:45:54;11.60;99.90
52058;DHT22;38063;53.210;6.504;2023-09-30T02:48:20;12.20;99.90
52058;DHT22;38063;53.210;6.504;2023-09-30T02:50:46;11.60;99.90
52058;DHT22;38063;53.210;6.504;2023-09-30T02:53:12;11.60;99.90
52058;DHT22;38063;53.210;6.504;2023-09-30T02:55:41;11.60;99.90
52058;DHT22;38063;53.210;6.504;2023-09-30T02:58:08;11.60;99.90
52058;DHT22;38063;53.210;6.504;2023-09-30T03:00:35;11.70;99.90
52058;DHT22;38063;53.210;6.504;2023-09-30T03:03:01;11.90;99.90
52058;DHT22;38063;53.210;6.504;2023-09-30T03:05:27;11.70;99.90
52058;DHT22;38063;53.210;6.504;2023-09-30T03:07:56;11.70;99.90
52058;DHT22;38063;53.210;6.504;2023-09-30T03:10:22;11.80;99.90
52058;DHT22;38063;53.210;6.504;2023-09-30T03:12:50;11.70;99.90
52058;DHT22;38063;53.210;6.504;2023-09-30T03:15:16;11.70;99.90
52058;DHT22;38063;53.210;6.504;2023-09-30T03:17:42;11.70;99.90
52058;DHT22;38063;53.210;6.504;2023-09-30T03:20:09;11.70;99.90
52058;DHT22;38063;53.210;6.504;2023-09-30T03:22:42;11.60;99.90
52058;DHT22;38063;53.210;6.504;2023-09-30T03:25:09;11.70;99.90
52058;DHT22;38063;53.210;6.504;2023-09-30T03:27:37;11.60;99.90
52058;DHT22;38063;53.210;6.504;2023-09-30T03:30:07;11.60;99.90
52058;DHT22;38063;53.210;6.504;2023-09-30T03:32:34;11.60;99.90
52058;DHT22;38063;53.210;6.504;2023-09-30T03:35:12;11.50;99.90
52058;DHT22;38063;53.210;6.504;2023-09-30T03:37:45;11.50;99.90
52058;DHT22;38063;53.210;6.504;2023-09-30T03:40:13;11.60;99.90
52058;DHT22;38063;53.210;6.504;2023-09-30T03:42:42;11.50;99.90
52058;DHT22;38063;53.210;6.504;2023-09-30T03:45:09;11.50;99.90
52058;DHT22;38063;53.210;6.504;2023-09-30T03:47:36;11.50;99.90
52058;DHT22;38063;53.210;6.504;2023-09-30T03:50:03;11.50;99.90
52058;DHT22;38063;53.210;6.504;2023-09-30T03:52:29;11.50;99.90
52058;DHT22;38063;53.210;6.504;2023-09-30T03:54:55;11.50;99.90
52058;DHT22;38063;53.210;6.504;2023-09-30T03:57:20;11.50;99.90
52058;DHT22;38063;53.210;6.504;2023-09-30T03:59:46;11.50;99.90
52058;DHT22;38063;53.210;6.504;2023-09-30T04:02:12;11.50;99.90
52058;DHT22;38063;53.210;6.504;2023-09-30T04:04:39;11.50;99.90
52058;DHT22;38063;53.210;6.504;2023-09-30T04:07:04;11.50;99.90
52058;DHT22;38063;53.210;6.504;2023-09-30T04:09:32;11.50;99.90
52058;DHT22;38063;53.210;6.504;2023-09-30T04:11:58;11.40;99.90
52058;DHT22;38063;53.210;6.504;2023-09-30T04:14:23;11.40;99.90
52058;DHT22;38063;53.210;6.504;2023-09-30T04:16:50;11.60;99.90
52058;DHT22;38063;53.210;6.504;2023-09-30T04:19:16;11.40;99.90
52058;DHT22;38063;53.210;6.504;2023-09-30T04:21:42;11.40;99.90
52058;DHT22;38063;53.210;6.504;2023-09-30T04:24:08;11.40;99.90
52058;DHT22;38063;53.210;6.504;2023-09-30T04:26:34;11.40;99.90
52058;DHT22;38063;53.210;6.504;2023-09-30T04:29:00;11.40;99.90
52058;DHT22;38063;53.210;6.504;2023-09-30T04:31:28;11.40;99.90
52058;DHT22;38063;53.210;6.504;2023-09-30T04:33:54;11.50;99.90
52058;DHT22;38063;53.210;6.504;2023-09-30T04:36:20;11.40;99.90
52058;DHT22;38063;53.210;6.504;2023-09-30T04:38:46;11.40;99.90
52058;DHT22;38063;53.210;6.504;2023-09-30T04:41:12;11.40;99.90
52058;DHT22;38063;53.210;6.504;2023-09-30T04:43:38;11.40;99.90
52058;DHT22;38063;53.210;6.504;2023-09-30T04:46:05;11.40;99.90
52058;DHT22;38063;53.210;6.504;2023-09-30T04:48:32;11.40;99.90
52058;DHT22;38063;53.210;6.504;2023-09-30T04:50:58;11.40;99.90
52058;DHT22;38063;53.210;6.504;2023-09-30T04:53:24;11.40;99.90
52058;DHT22;38063;53.210;6.504;2023-09-30T04:55:49;11.30;99.90
52058;DHT22;38063;53.210;6.504;2023-09-30T04:58:16;11.60;99.90
52058;DHT22;38063;53.210;6.504;2023-09-30T05:00:41;11.30;99.90
52058;DHT22;38063;53.210;6.504;2023-09-30T05:03:07;11.40;99.90
52058;DHT22;38063;53.210;6.504;2023-09-30T05:05:33;11.30;99.90
52058;DHT22;38063;53.210;6.504;2023-09-30T05:07:59;11.40;99.90
52058;DHT22;38063;53.210;6.504;2023-09-30T05:10:25;11.40;99.90
52058;DHT22;38063;53.210;6.504;2023-09-30T05:12:51;11.40;99.90
52058;DHT22;38063;53.210;6.504;2023-09-30T05:15:20;11.40;99.90
52058;DHT22;38063;53.210;6.504;2023-09-30T05:17:46;11.30;99.90
52058;DHT22;38063;53.210;6.504;2023-09-30T05:20:14;11.70;99.90
52058;DHT22;38063;53.210;6.504;2023-09-30T05:22:43;11.30;99.90
52058;DHT22;38063;53.210;6.504;2023-09-30T05:25:15;11.30;99.90
52058;DHT22;38063;53.210;6.504;2023-09-30T05:27:42;11.30;99.90
52058;DHT22;38063;53.210;6.504;2023-09-30T05:30:08;11.40;99.90
52058;DHT22;38063;53.210;6.504;2023-09-30T05:32:35;11.30;99.90
52058;DHT22;38063;53.210;6.504;2023-09-30T05:35:05;11.30;99.90
52058;DHT22;38063;53.210;6.504;2023-09-30T05:37:31;11.30;99.90
52058;DHT22;38063;53.210;6.504;2023-09-30T05:39:57;11.30;99.90
52058;DHT22;38063;53.210;6.504;2023-09-30T05:42:23;11.30;99.90
52058;DHT22;38063;53.210;6.504;2023-09-30T05:44:48;11.40;99.90
52058;DHT22;38063;53.210;6.504;2023-09-30T05:47:14;11.30;99.90
52058;DHT22;38063;53.210;6.504;2023-09-30T05:49:41;11.30;99.90
52058;DHT22;38063;53.210;6.504;2023-09-30T05:52:07;11.30;99.90
52058;DHT22;38063;53.210;6.504;2023-09-30T05:54:32;11.20;99.90
52058;DHT22;38063;53.210;6.504;2023-09-30T05:56:58;11.30;99.90
52058;DHT22;38063;53.210;6.504;2023-09-30T05:59:25;11.20;99.90
52058;DHT22;38063;53.210;6.504;2023-09-30T06:01:51;11.20;99.90
52058;DHT22;38063;53.210;6.504;2023-09-30T06:04:17;11.20;99.90
52058;DHT22;38063;53.210;6.504;2023-09-30T06:06:43;11.20;99.90
52058;DHT22;38063;53.210;6.504;2023-09-30T06:09:09;11.20;99.90
52058;DHT22;38063;53.210;6.504;2023-09-30T06:11:34;11.20;99.90
52058;DHT22;38063;53.210;6.504;2023-09-30T06:14:01;11.20;99.90
52058;DHT22;38063;53.210;6.504;2023-09-30T06:16:27;11.20;99.90
52058;DHT22;38063;53.210;6.504;2023-09-30T06:18:53;11.20;99.90
52058;DHT22;38063;53.210;6.504;2023-09-30T06:21:24;11.20;99.90
52058;DHT22;38063;53.210;6.504;2023-09-30T06:23:50;11.20;99.90
52058;DHT22;38063;53.210;6.504;2023-09-30T06:26:19;11.20;99.90
52058;DHT22;38063;53.210;6.504;2023-09-30T06:28:46;11.30;99.90
52058;DHT22;38063;53.210;6.504;2023-09-30T06:31:14;11.20;99.90
52058;DHT22;38063;53.210;6.504;2023-09-30T06:33:40;11.30;99.90
52058;DHT22;38063;53.210;6.504;2023-09-30T06:36:11;11.30;99.90
52058;DHT22;38063;53.210;6.504;2023-09-30T06:38:39;11.30;99.90
52058;DHT22;38063;53.210;6.504;2023-09-30T06:41:05;11.30;99.90
52058;DHT22;38063;53.210;6.504;2023-09-30T06:43:31;11.40;99.90
52058;DHT22;38063;53.210;6.504;2023-09-30T06:45:58;11.40;99.90
52058;DHT22;38063;53.210;6.504;2023-09-30T06:48:24;11.40;99.90
52058;DHT22;38063;53.210;6.504;2023-09-30T06:50:50;11.50;99.90
52058;DHT22;38063;53.210;6.504;2023-09-30T06:53:17;11.60;99.90
52058;DHT22;38063;53.210;6.504;2023-09-30T06:55:44;11.60;99.90
52058;DHT22;38063;53.210;6.504;2023-09-30T06:58:10;11.60;99.90
52058;DHT22;38063;53.210;6.504;2023-09-30T07:00:37;11.70;99.90
52058;DHT22;38063;53.210;6.504;2023-09-30T07:03:03;11.70;99.90
52058;DHT22;38063;53.210;6.504;2023-09-30T07:05:29;11.80;99.90
52058;DHT22;38063;53.210;6.504;2023-09-30T07:07:55;12.00;99.90
52058;DHT22;38063;53.210;6.504;2023-09-30T07:10:20;12.00;99.90
52058;DHT22;38063;53.210;6.504;2023-09-30T07:12:46;12.00;99.90
52058;DHT22;38063;53.210;6.504;2023-09-30T07:15:12;12.10;99.90
52058;DHT22;38063;53.210;6.504;2023-09-30T07:17:39;12.20;99.90
52058;DHT22;38063;53.210;6.504;2023-09-30T07:20:06;12.30;99.90
52058;DHT22;38063;53.210;6.504;2023-09-30T07:22:33;12.40;99.90
52058;DHT22;38063;53.210;6.504;2023-09-30T07:24:59;12.40;99.90
52058;DHT22;38063;53.210;6.504;2023-09-30T07:27:24;12.50;99.90
52058;DHT22;38063;53.210;6.504;2023-09-30T07:29:51;12.50;99.90
52058;DHT22;38063;53.210;6.504;2023-09-30T07:32:17;12.60;99.90
52058;DHT22;38063;53.210;6.504;2023-09-30T07:34:42;12.70;99.90
52058;DHT22;38063;53.210;6.504;2023-09-30T07:37:09;12.80;99.90
52058;DHT22;38063;53.210;6.504;2023-09-30T07:39:35;12.80;99.90
52058;DHT22;38063;53.210;6.504;2023-09-30T07:42:01;12.90;99.90
52058;DHT22;38063;53.210;6.504;2023-09-30T07:44:27;12.90;99.90
52058;DHT22;38063;53.210;6.504;2023-09-30T07:46:53;12.90;99.90
52058;DHT22;38063;53.210;6.504;2023-09-30T07:49:19;13.00;99.90
52058;DHT22;38063;53.210;6.504;2023-09-30T07:51:45;13.00;99.90
52058;DHT22;38063;53.210;6.504;2023-09-30T07:54:11;13.10;99.90
52058;DHT22;38063;53.210;6.504;2023-09-30T07:56:37;13.20;99.90
52058;DHT22;38063;53.210;6.504;2023-09-30T07:59:04;13.20;99.90
52058;DHT22;38063;53.210;6.504;2023-09-30T08:01:31;13.20;99.90
52058;DHT22;38063;53.210;6.504;2023-09-30T08:03:57;13.30;99.90
52058;DHT22;38063;53.210;6.504;2023-09-30T08:06:23;13.40;99.90
52058;DHT22;38063;53.210;6.504;2023-09-30T08:08:49;13.40;99.90
52058;DHT22;38063;53.210;6.504;2023-09-30T08:11:15;13.40;99.90
52058;DHT22;38063;53.210;6.504;2023-09-30T08:13:40;13.50;99.90
52058;DHT22;38063;53.210;6.504;2023-09-30T08:16:06;13.60;99.90
52058;DHT22;38063;53.210;6.504;2023-09-30T08:18:32;13.70;99.90
52058;DHT22;38063;53.210;6.504;2023-09-30T08:20:58;13.80;99.90
52058;DHT22;38063;53.210;6.504;2023-09-30T08:23:23;13.80;99.90
52058;DHT22;38063;53.210;6.504;2023-09-30T08:25:49;13.90;99.90
52058;DHT22;38063;53.210;6.504;2023-09-30T08:28:15;14.00;99.90
52058;DHT22;38063;53.210;6.504;2023-09-30T08:30:41;14.10;99.90
52058;DHT22;38063;53.210;6.504;2023-09-30T08:33:07;14.10;99.90
52058;DHT22;38063;53.210;6.504;2023-09-30T08:35:38;14.30;99.90
52058;DHT22;38063;53.210;6.504;2023-09-30T08:38:04;14.30;99.90
52058;DHT22;38063;53.210;6.504;2023-09-30T08:40:31;14.40;99.90
52058;DHT22;38063;53.210;6.504;2023-09-30T08:42:57;14.50;99.90
52058;DHT22;38063;53.210;6.504;2023-09-30T08:45:23;14.60;99.90
52058;DHT22;38063;53.210;6.504;2023-09-30T08:47:50;14.80;99.90
52058;DHT22;38063;53.210;6.504;2023-09-30T08:50:16;14.80;99.90
52058;DHT22;38063;53.210;6.504;2023-09-30T08:52:44;14.90;99.90
52058;DHT22;38063;53.210;6.504;2023-09-30T08:55:11;15.00;99.90
52058;DHT22;38063;53.210;6.504;2023-09-30T08:57:39;15.10;99.90
52058;DHT22;38063;53.210;6.504;2023-09-30T09:00:06;15.20;99.90
52058;DHT22;38063;53.210;6.504;2023-09-30T09:02:35;15.30;99.90
52058;DHT22;38063;53.210;6.504;2023-09-30T09:05:02;15.40;99.90
52058;DHT22;38063;53.210;6.504;2023-09-30T09:07:28;15.50;99.90
52058;DHT22;38063;53.210;6.504;2023-09-30T09:10:04;15.60;99.90
52058;DHT22;38063;53.210;6.504;2023-09-30T09:12:33;15.70;99.90
52058;DHT22;38063;53.210;6.504;2023-09-30T09:14:58;15.80;99.90
52058;DHT22;38063;53.210;6.504;2023-09-30T09:17:44;15.90;99.90
52058;DHT22;38063;53.210;6.504;2023-09-30T09:20:11;16.00;99.90
52058;DHT22;38063;53.210;6.504;2023-09-30T09:22:43;16.10;99.90
52058;DHT22;38063;53.210;6.504;2023-09-30T09:25:12;16.10;99.90
52058;DHT22;38063;53.210;6.504;2023-09-30T09:27:38;16.30;99.90
52058;DHT22;38063;53.210;6.504;2023-09-30T09:30:25;16.30;99.90
52058;DHT22;38063;53.210;6.504;2023-09-30T09:35:21;16.60;99.90
52058;DHT22;38063;53.210;6.504;2023-09-30T09:38:04;16.70;99.90
52058;DHT22;38063;53.210;6.504;2023-09-30T09:40:35;16.80;99.90
52058;DHT22;38063;53.210;6.504;2023-09-30T09:43:02;17.00;99.90
52058;DHT22;38063;53.210;6.504;2023-09-30T09:45:38;17.10;99.90
52058;DHT22;38063;53.210;6.504;2023-09-30T09:48:05;17.30;99.90
52058;DHT22;38063;53.210;6.504;2023-09-30T09:50:31;17.40;99.90
52058;DHT22;38063;53.210;6.504;2023-09-30T09:53:01;17.60;99.90
52058;DHT22;38063;53.210;6.504;2023-09-30T09:55:29;17.70;99.90
52058;DHT22;38063;53.210;6.504;2023-09-30T09:57:58;17.80;99.90
52058;DHT22;38063;53.210;6.504;2023-09-30T10:00:25;18.00;99.90
52058;DHT22;38063;53.210;6.504;2023-09-30T10:02:52;18.10;99.90
52058;DHT22;38063;53.210;6.504;2023-09-30T10:05:19;18.20;99.90
52058;DHT22;38063;53.210;6.504;2023-09-30T10:07:56;18.30;99.90
52058;DHT22;38063;53.210;6.504;2023-09-30T10:10:23;18.40;99.90
52058;DHT22;38063;53.210;6.504;2023-09-30T10:12:50;18.50;99.90
52058;DHT22;38063;53.210;6.504;2023-09-30T10:20:31;18.50;99.90
52058;DHT22;38063;53.210;6.504;2023-09-30T10:25:49;18.50;99.90
52058;DHT22;38063;53.210;6.504;2023-09-30T10:28:42;18.60;99.90
52058;DHT22;38063;53.210;6.504;2023-09-30T10:31:18;18.70;99.90
52058;DHT22;38063;53.210;6.504;2023-09-30T10:36:38;18.90;99.90
52058;DHT22;38063;53.210;6.504;2023-09-30T10:39:06;18.80;99.90
52058;DHT22;38063;53.210;6.504;2023-09-30T10:46:56;19.00;99.90
52058;DHT22;38063;53.210;6.504;2023-09-30T10:51:52;19.30;99.90
52058;DHT22;38063;53.210;6.504;2023-09-30T10:54:25;19.50;99.90
52058;DHT22;38063;53.210;6.504;2023-09-30T10:56:51;19.70;99.90
52058;DHT22;38063;53.210;6.504;2023-09-30T10:59:25;19.80;99.90
52058;DHT22;38063;53.210;6.504;2023-09-30T11:01:52;20.00;99.90
52058;DHT22;38063;53.210;6.504;2023-09-30T11:04:19;20.20;99.90
52058;DHT22;38063;53.210;6.504;2023-09-30T11:06:45;20.30;99.90
52058;DHT22;38063;53.210;6.504;2023-09-30T11:09:19;20.20;99.90
52058;DHT22;38063;53.210;6.504;2023-09-30T11:11:52;20.30;99.90
52058;DHT22;38063;53.210;6.504;2023-09-30T11:14:27;20.20;99.90
52058;DHT22;38063;53.210;6.504;2023-09-30T11:16:55;20.10;99.90
52058;DHT22;38063;53.210;6.504;2023-09-30T11:19:22;19.90;99.90
52058;DHT22;38063;53.210;6.504;2023-09-30T11:21:53;19.80;99.90
52058;DHT22;38063;53.210;6.504;2023-09-30T11:24:20;19.70;99.90
52058;DHT22;38063;53.210;6.504;2023-09-30T11:26:46;19.50;99.90
52058;DHT22;38063;53.210;6.504;2023-09-30T11:29:16;19.40;99.90
52058;DHT22;38063;53.210;6.504;2023-09-30T11:31:44;19.20;99.90
52058;DHT22;38063;53.210;6.504;2023-09-30T11:34:11;19.10;99.90
52058;DHT22;38063;53.210;6.504;2023-09-30T11:36:39;18.90;99.90
52058;DHT22;38063;53.210;6.504;2023-09-30T11:39:05;18.80;99.90
52058;DHT22;38063;53.210;6.504;2023-09-30T11:41:36;18.70;99.90
52058;DHT22;38063;53.210;6.504;2023-09-30T11:44:10;18.60;99.90
52058;DHT22;38063;53.210;6.504;2023-09-30T11:46:57;18.40;99.90
52058;DHT22;38063;53.210;6.504;2023-09-30T11:49:32;18.40;99.90
52058;DHT22;38063;53.210;6.504;2023-09-30T11:52:00;18.30;99.90
52058;DHT22;38063;53.210;6.504;2023-09-30T11:54:30;18.20;99.90
52058;DHT22;38063;53.210;6.504;2023-09-30T11:56:57;18.20;99.90
52058;DHT22;38063;53.210;6.504;2023-09-30T11:59:24;18.10;99.90
52058;DHT22;38063;53.210;6.504;2023-09-30T12:01:50;18.10;99.90
52058;DHT22;38063;53.210;6.504;2023-09-30T12:04:17;18.10;99.90
52058;DHT22;38063;53.210;6.504;2023-09-30T12:06:45;18.10;99.90
52058;DHT22;38063;53.210;6.504;2023-09-30T12:09:10;18.10;99.90
52058;DHT22;38063;53.210;6.504;2023-09-30T12:11:43;18.20;99.90
52058;DHT22;38063;53.210;6.504;2023-09-30T12:14:12;18.30;99.90
52058;DHT22;38063;53.210;6.504;2023-09-30T12:16:39;18.60;99.90
52058;DHT22;38063;53.210;6.504;2023-09-30T12:19:05;19.00;99.90
52058;DHT22;38063;53.210;6.504;2023-09-30T12:21:34;19.20;99.90
52058;DHT22;38063;53.210;6.504;2023-09-30T12:24:03;19.50;99.90
52058;DHT22;38063;53.210;6.504;2023-09-30T12:26:30;19.60;99.90
52058;DHT22;38063;53.210;6.504;2023-09-30T12:28:56;19.70;99.90
52058;DHT22;38063;53.210;6.504;2023-09-30T12:31:22;19.90;99.90
52058;DHT22;38063;53.210;6.504;2023-09-30T12:33:49;20.10;99.90
52058;DHT22;38063;53.210;6.504;2023-09-30T12:36:18;20.10;99.90
52058;DHT22;38063;53.210;6.504;2023-09-30T12:38:43;20.10;99.90
52058;DHT22;38063;53.210;6.504;2023-09-30T12:41:10;20.00;99.90
52058;DHT22;38063;53.210;6.504;2023-09-30T12:43:36;19.90;99.90
52058;DHT22;38063;53.210;6.504;2023-09-30T12:46:02;19.90;99.90
52058;DHT22;38063;53.210;6.504;2023-09-30T12:48:27;19.80;99.90
52058;DHT22;38063;53.210;6.504;2023-09-30T12:50:53;19.70;99.90
52058;DHT22;38063;53.210;6.504;2023-09-30T12:53:19;19.60;99.90
52058;DHT22;38063;53.210;6.504;2023-09-30T12:55:44;19.50;99.90
52058;DHT22;38063;53.210;6.504;2023-09-30T12:58:11;19.40;99.90
52058;DHT22;38063;53.210;6.504;2023-09-30T13:00:37;19.40;99.90
52058;DHT22;38063;53.210;6.504;2023-09-30T13:03:03;19.40;99.90
52058;DHT22;38063;53.210;6.504;2023-09-30T13:05:29;19.40;99.90
52058;DHT22;38063;53.210;6.504;2023-09-30T13:07:55;19.40;99.90
52058;DHT22;38063;53.210;6.504;2023-09-30T13:10:22;19.40;99.90
52058;DHT22;38063;53.210;6.504;2023-09-30T13:12:48;19.50;99.90
52058;DHT22;38063;53.210;6.504;2023-09-30T13:15:16;19.70;99.90
52058;DHT22;38063;53.210;6.504;2023-09-30T13:17:44;19.90;99.90
52058;DHT22;38063;53.210;6.504;2023-09-30T13:20:11;20.00;99.90
52058;DHT22;38063;53.210;6.504;2023-09-30T13:22:38;20.00;99.90
52058;DHT22;38063;53.210;6.504;2023-09-30T13:25:07;20.00;99.90
52058;DHT22;38063;53.210;6.504;2023-09-30T13:27:34;19.90;99.90
52058;DHT22;38063;53.210;6.504;2023-09-30T13:30:00;19.90;99.90
52058;DHT22;38063;53.210;6.504;2023-09-30T13:32:27;19.90;99.90
52058;DHT22;38063;53.210;6.504;2023-09-30T13:34:53;19.90;99.90
52058;DHT22;38063;53.210;6.504;2023-09-30T13:37:19;19.90;99.90
52058;DHT22;38063;53.210;6.504;2023-09-30T13:39:45;19.80;99.90
52058;DHT22;38063;53.210;6.504;2023-09-30T13:42:14;19.80;99.90
52058;DHT22;38063;53.210;6.504;2023-09-30T13:44:40;19.80;99.90
52058;DHT22;38063;53.210;6.504;2023-09-30T13:47:06;19.80;99.90
52058;DHT22;38063;53.210;6.504;2023-09-30T13:49:33;19.90;99.90
52058;DHT22;38063;53.210;6.504;2023-09-30T13:51:59;19.90;99.90
52058;DHT22;38063;53.210;6.504;2023-09-30T13:54:25;19.80;99.90
52058;DHT22;38063;53.210;6.504;2023-09-30T13:56:50;19.90;99.90
52058;DHT22;38063;53.210;6.504;2023-09-30T13:59:16;19.90;99.90
52058;DHT22;38063;53.210;6.504;2023-09-30T14:01:42;19.90;99.90
52058;DHT22;38063;53.210;6.504;2023-09-30T14:04:08;19.80;99.90
52058;DHT22;38063;53.210;6.504;2023-09-30T14:06:35;19.80;99.90
52058;DHT22;38063;53.210;6.504;2023-09-30T14:09:00;19.80;99.90
52058;DHT22;38063;53.210;6.504;2023-09-30T14:11:26;19.80;99.90
52058;DHT22;38063;53.210;6.504;2023-09-30T14:13:52;19.80;99.90
52058;DHT22;38063;53.210;6.504;2023-09-30T14:16:18;19.80;99.90
52058;DHT22;38063;53.210;6.504;2023-09-30T14:18:44;19.80;99.90
52058;DHT22;38063;53.210;6.504;2023-09-30T14:21:10;19.60;99.90
52058;DHT22;38063;53.210;6.504;2023-09-30T14:23:36;19.50;99.90
52058;DHT22;38063;53.210;6.504;2023-09-30T14:26:02;19.50;99.90
52058;DHT22;38063;53.210;6.504;2023-09-30T14:28:36;19.40;99.90
52058;DHT22;38063;53.210;6.504;2023-09-30T14:31:05;19.30;99.90
52058;DHT22;38063;53.210;6.504;2023-09-30T14:33:34;19.30;99.90
52058;DHT22;38063;53.210;6.504;2023-09-30T14:35:59;19.30;99.90
52058;DHT22;38063;53.210;6.504;2023-09-30T14:38:25;19.30;99.90
52058;DHT22;38063;53.210;6.504;2023-09-30T14:40:51;19.30;99.90
52058;DHT22;38063;53.210;6.504;2023-09-30T14:43:16;19.30;99.90
52058;DHT22;38063;53.210;6.504;2023-09-30T14:45:42;19.30;99.90
52058;DHT22;38063;53.210;6.504;2023-09-30T14:48:10;19.30;99.90
52058;DHT22;38063;53.210;6.504;2023-09-30T14:50:36;19.20;99.90
52058;DHT22;38063;53.210;6.504;2023-09-30T14:53:03;19.10;99.90
52058;DHT22;38063;53.210;6.504;2023-09-30T14:55:30;19.10;99.90
52058;DHT22;38063;53.210;6.504;2023-09-30T14:57:56;19.10;99.90
52058;DHT22;38063;53.210;6.504;2023-09-30T15:00:22;19.00;99.90
52058;DHT22;38063;53.210;6.504;2023-09-30T15:02:50;19.00;99.90
52058;DHT22;38063;53.210;6.504;2023-09-30T15:05:16;18.90;99.90
52058;DHT22;38063;53.210;6.504;2023-09-30T15:07:42;18.90;99.90
52058;DHT22;38063;53.210;6.504;2023-09-30T15:10:08;18.90;99.90
52058;DHT22;38063;53.210;6.504;2023-09-30T15:12:35;18.80;99.90
52058;DHT22;38063;53.210;6.504;2023-09-30T15:15:01;18.80;99.90
52058;DHT22;38063;53.210;6.504;2023-09-30T15:17:27;18.70;99.90
52058;DHT22;38063;53.210;6.504;2023-09-30T15:19:55;18.70;99.90
52058;DHT22;38063;53.210;6.504;2023-09-30T15:22:20;18.70;99.90
52058;DHT22;38063;53.210;6.504;2023-09-30T15:24:46;18.60;99.90
52058;DHT22;38063;53.210;6.504;2023-09-30T15:27:12;18.60;99.90
52058;DHT22;38063;53.210;6.504;2023-09-30T15:29:37;18.50;99.90
52058;DHT22;38063;53.210;6.504;2023-09-30T15:32:03;18.50;99.90
52058;DHT22;38063;53.210;6.504;2023-09-30T15:34:30;18.40;99.90
52058;DHT22;38063;53.210;6.504;2023-09-30T15:36:55;18.40;99.90
52058;DHT22;38063;53.210;6.504;2023-09-30T15:39:22;18.40;99.90
52058;DHT22;38063;53.210;6.504;2023-09-30T15:41:47;18.30;99.90
52058;DHT22;38063;53.210;6.504;2023-09-30T15:44:13;18.30;99.90
52058;DHT22;38063;53.210;6.504;2023-09-30T15:46:39;18.30;99.90
52058;DHT22;38063;53.210;6.504;2023-09-30T15:49:04;18.20;99.90
52058;DHT22;38063;53.210;6.504;2023-09-30T15:51:30;18.20;99.90